createdAt,value
2023-02-21T00:00:08.453Z,70.12
2023-02-21T00:03:22.021Z,70.09
2023-02-21T00:06:08.947Z,69.98
2023-02-21T00:08:55.956Z,69.96
2023-02-21T00:11:42.885Z,69.95
2023-02-21T00:14:29.533Z,68.12
2023-02-21T00:17:16.294Z,68.06
2023-02-21T00:20:02.792Z,68.87
2023-02-21T00:22:50.031Z,68.93
2023-02-21T00:25:37.150Z,68.92
2023-02-21T00:28:23.801Z,69.21
2023-02-21T00:31:11.030Z,69.35
2023-02-21T00:33:57.992Z,69.23
2023-02-21T00:36:45.117Z,69.02
2023-02-21T00:39:32.441Z,67.23
2023-02-21T00:42:19.187Z,67.61
2023-02-21T00:45:06.570Z,67.52
2023-02-21T00:47:53.902Z,67.91
2023-02-21T00:50:40.708Z,67.07
2023-02-21T00:53:27.620Z,67.77
2023-02-21T00:56:14.787Z,68.42
2023-02-21T00:59:01.949Z,68.16
2023-02-21T01:01:48.865Z,67.69
2023-02-21T01:04:37.474Z,67.90
2023-02-21T01:07:24.712Z,67.34
2023-02-21T01:10:11.721Z,67.09
2023-02-21T01:12:58.251Z,67.46
2023-02-21T01:15:45.452Z,67.82
2023-02-21T01:18:33.750Z,68.21
2023-02-21T01:21:23.235Z,67.91
2023-02-21T01:24:10.008Z,68.03
2023-02-21T01:26:57.987Z,67.72
2023-02-21T01:29:45.005Z,67.54
2023-02-21T01:32:32.436Z,68.34
2023-02-21T01:35:19.557Z,68.40
2023-02-21T01:38:06.592Z,68.18
2023-02-21T01:40:53.647Z,67.62
2023-02-21T01:43:43.062Z,68.07
2023-02-21T01:46:33.870Z,67.84
2023-02-21T01:49:35.311Z,67.99
2023-02-21T01:52:23.477Z,68.29
2023-02-21T01:55:14.297Z,68.94
2023-02-21T01:58:04.895Z,69.38
2023-02-21T02:00:52.397Z,69.55
2023-02-21T02:03:41.383Z,69.70
2023-02-21T02:06:35.598Z,69.79
2023-02-21T02:09:39.811Z,69.60
2023-02-21T02:12:24.454Z,68.27
2023-02-21T02:14:59.206Z,68.71
2023-02-21T02:17:46.144Z,68.76
2023-02-21T02:20:14.262Z,68.78
2023-02-21T02:23:03.874Z,68.97
2023-02-21T02:26:04.277Z,68.85
2023-02-21T02:28:53.974Z,68.76
2023-02-21T02:31:51.772Z,69.46
2023-02-21T02:34:39.462Z,69.23
2023-02-21T02:37:14.810Z,69.33
2023-02-21T02:39:58.005Z,68.79
2023-02-21T02:42:41.463Z,69.14
2023-02-21T02:45:20.864Z,69.84
2023-02-21T02:47:55.599Z,69.99
2023-02-21T02:50:26.918Z,70.58
2023-02-21T02:53:02.842Z,70.65
2023-02-21T02:55:34.493Z,69.67
2023-02-21T02:58:04.053Z,69.53
2023-02-21T03:00:35.276Z,69.01
2023-02-21T03:03:36.185Z,69.61
2023-02-21T03:06:24.188Z,68.99
2023-02-21T03:09:11.493Z,69.15
2023-02-21T03:12:00.989Z,68.98
2023-02-21T03:15:09.396Z,69.71
2023-02-21T03:17:42.782Z,70.13
2023-02-21T03:20:14.146Z,69.91
2023-02-21T03:22:45.509Z,69.82
2023-02-21T03:25:15.700Z,69.73
2023-02-21T03:27:49.651Z,69.07
2023-02-21T03:30:25.286Z,69.86
2023-02-21T03:32:55.322Z,69.72
2023-02-21T03:35:29.998Z,70.06
2023-02-21T03:37:58.983Z,69.46
2023-02-21T03:40:33.866Z,69.72
2023-02-21T03:43:07.385Z,70.19
2023-02-21T03:45:47.954Z,70.21
2023-02-21T03:48:30.918Z,70.57
2023-02-21T03:51:02.065Z,70.89
2023-02-21T03:53:34.533Z,71.64
2023-02-21T03:56:03.937Z,71.99
2023-02-21T03:58:40.355Z,72.14
2023-02-21T04:01:09.429Z,72.60
2023-02-21T04:03:37.880Z,72.60
2023-02-21T04:06:06.606Z,72.59
2023-02-21T04:08:34.952Z,72.78
2023-02-21T04:11:03.289Z,73.09
2023-02-21T04:13:35.527Z,72.98
2023-02-21T04:16:04.857Z,72.90
2023-02-21T04:18:37.590Z,72.85
2023-02-21T04:21:07.308Z,72.60
2023-02-21T04:23:35.883Z,72.65
2023-02-21T04:26:05.801Z,73.37
2023-02-21T04:28:40.653Z,73.65
2023-02-21T04:31:09.324Z,73.87
2023-02-21T04:33:37.770Z,73.95
2023-02-21T04:36:06.699Z,73.53
2023-02-21T04:38:43.381Z,73.84
2023-02-21T04:41:12.247Z,74.42
2023-02-21T04:43:43.383Z,74.20
2023-02-21T04:46:16.144Z,73.94
2023-02-21T04:48:46.471Z,73.64
2023-02-21T04:51:17.071Z,73.18
2023-02-21T04:53:48.524Z,73.00
2023-02-21T04:56:21.089Z,73.69
2023-02-21T04:58:50.012Z,74.51
2023-02-21T05:01:19.511Z,74.35
2023-02-21T05:03:48.685Z,74.32
2023-02-21T05:06:19.073Z,73.99
2023-02-21T05:08:47.702Z,73.43
2023-02-21T05:11:16.987Z,73.80
2023-02-21T05:13:46.524Z,73.58
2023-02-21T05:16:14.765Z,73.34
2023-02-21T05:18:44.333Z,73.64
2023-02-21T05:21:13.836Z,73.34
2023-02-21T05:23:43.275Z,73.57
2023-02-21T05:26:13.789Z,74.23
2023-02-21T05:28:42.125Z,74.18
2023-02-21T05:31:10.438Z,74.36
2023-02-21T05:33:38.772Z,73.97
2023-02-21T05:36:08.282Z,74.13
2023-02-21T05:38:51.773Z,74.12
2023-02-21T05:41:20.622Z,74.27
2023-02-21T05:43:49.917Z,74.42
2023-02-21T05:46:19.843Z,74.64
2023-02-21T05:49:39.204Z,74.62
2023-02-21T05:52:08.770Z,75.31
2023-02-21T05:54:37.503Z,75.50
2023-02-21T05:57:06.290Z,75.05
2023-02-21T05:59:36.037Z,74.96
2023-02-21T06:02:04.813Z,74.43
2023-02-21T06:04:34.792Z,74.13
2023-02-21T06:07:03.818Z,74.42
2023-02-21T06:09:32.389Z,74.43
2023-02-21T06:12:00.595Z,74.28
2023-02-21T06:14:28.756Z,73.97
2023-02-21T06:16:57.123Z,73.37
2023-02-21T06:19:25.192Z,73.27
2023-02-21T06:21:53.473Z,73.18
2023-02-21T06:24:21.753Z,72.95
2023-02-21T06:26:50.028Z,73.02
2023-02-21T06:29:18.384Z,71.76
2023-02-21T06:31:46.778Z,71.08
2023-02-21T06:34:15.537Z,70.72
2023-02-21T06:36:43.611Z,70.10
2023-02-21T06:39:12.775Z,69.31
2023-02-21T06:41:41.028Z,68.96
2023-02-21T06:44:09.859Z,68.91
2023-02-21T06:46:39.133Z,69.29
2023-02-21T06:49:07.343Z,68.73
2023-02-21T06:51:40.706Z,69.44
2023-02-21T06:54:10.002Z,68.96
2023-02-21T06:56:39.026Z,68.63
2023-02-21T06:59:07.128Z,68.30
2023-02-21T07:01:35.513Z,68.46
2023-02-21T07:04:03.938Z,68.36
2023-02-21T07:06:33.642Z,68.07
2023-02-21T07:09:33.166Z,67.62
2023-02-21T07:12:03.487Z,68.13
2023-02-21T07:14:31.662Z,67.94
2023-02-21T07:17:00.365Z,68.34
2023-02-21T07:19:28.834Z,68.57
2023-02-21T07:21:57.018Z,69.17
2023-02-21T07:24:25.362Z,68.39
2023-02-21T07:26:55.810Z,68.39
2023-02-21T07:29:24.785Z,68.49
2023-02-21T07:31:53.042Z,68.94
2023-02-21T07:34:23.075Z,68.80
2023-02-21T07:36:51.387Z,69.62
2023-02-21T07:39:19.922Z,70.51
2023-02-21T07:41:48.123Z,70.13
2023-02-21T07:44:23.562Z,70.78
2023-02-21T07:46:51.897Z,71.49
2023-02-21T07:49:20.258Z,72.44
2023-02-21T07:51:48.444Z,72.57
2023-02-21T07:54:18.328Z,73.33
2023-02-21T07:56:48.680Z,73.07
2023-02-21T07:59:17.111Z,72.30
2023-02-21T08:01:46.288Z,71.58
2023-02-21T08:04:15.088Z,71.11
2023-02-21T08:06:43.482Z,70.58
2023-02-21T08:09:11.920Z,69.40
2023-02-21T08:11:40.713Z,69.24
2023-02-21T08:14:09.078Z,68.68
2023-02-21T08:16:37.592Z,68.00
2023-02-21T08:19:05.842Z,67.55
2023-02-21T08:21:34.022Z,67.37
2023-02-21T08:24:02.414Z,67.65
2023-02-21T08:26:30.934Z,67.54
2023-02-21T08:28:59.269Z,66.17
2023-02-21T08:31:27.549Z,65.92
2023-02-21T08:33:55.936Z,64.84
2023-02-21T08:36:32.938Z,64.75
2023-02-21T08:39:01.792Z,62.84
2023-02-21T08:41:42.432Z,62.82
2023-02-21T08:44:12.935Z,63.09
2023-02-21T08:46:41.336Z,62.08
2023-02-21T08:49:10.584Z,62.66
2023-02-21T08:51:40.490Z,62.47
2023-02-21T08:54:08.875Z,62.02
2023-02-21T08:56:37.455Z,61.46
2023-02-21T08:59:06.072Z,61.90
2023-02-21T09:01:36.193Z,61.40
2023-02-21T09:04:05.692Z,61.44
2023-02-21T09:06:34.259Z,61.40
2023-02-21T09:09:02.661Z,60.11
2023-02-21T09:11:31.228Z,60.46
2023-02-21T09:13:59.604Z,59.90
2023-02-21T09:16:27.917Z,59.57
2023-02-21T09:18:59.345Z,57.98
2023-02-21T09:21:28.520Z,58.71
2023-02-21T09:23:59.353Z,57.95
2023-02-21T09:26:31.935Z,57.21
2023-02-21T09:29:00.641Z,56.97
2023-02-21T09:31:28.906Z,57.00
2023-02-21T09:33:57.041Z,55.16
2023-02-21T09:36:27.131Z,55.55
2023-02-21T09:38:55.299Z,55.14
2023-02-21T09:41:23.885Z,53.53
2023-02-21T09:43:55.125Z,53.39
2023-02-21T09:46:41.455Z,53.54
2023-02-21T09:49:36.156Z,52.95
2023-02-21T09:52:05.687Z,52.98
2023-02-21T09:54:45.116Z,53.88
2023-02-21T09:57:18.594Z,55.10
2023-02-21T09:59:49.146Z,56.02
2023-02-21T10:02:41.260Z,56.96
2023-02-21T10:05:30.012Z,56.97
2023-02-21T10:08:43.648Z,57.46
2023-02-21T10:11:43.147Z,57.79
2023-02-21T10:14:30.293Z,58.37
2023-02-21T10:17:05.315Z,58.05
2023-02-21T10:19:42.040Z,58.90
2023-02-21T10:22:16.392Z,59.08
2023-02-21T10:24:44.994Z,58.91
2023-02-21T10:27:23.456Z,59.48
2023-02-21T10:30:05.900Z,58.41
2023-02-21T10:32:34.611Z,58.06
2023-02-21T10:35:03.084Z,58.23
2023-02-21T10:37:41.201Z,58.69
2023-02-21T10:40:45.624Z,57.37
2023-02-21T10:43:22.194Z,57.66
2023-02-21T10:46:03.113Z,58.26
2023-02-21T10:48:36.167Z,57.50
2023-02-21T10:51:06.383Z,56.87
2023-02-21T10:53:37.763Z,57.05
2023-02-21T10:56:19.639Z,57.49
2023-02-21T10:58:53.452Z,58.08
2023-02-21T11:01:30.432Z,58.33
2023-02-21T11:04:26.042Z,58.66
2023-02-21T11:06:56.249Z,59.32
2023-02-21T11:09:27.650Z,59.64
2023-02-21T11:12:20.582Z,59.79
2023-02-21T11:14:52.552Z,59.97
2023-02-21T11:17:25.253Z,60.17
2023-02-21T11:20:18.588Z,60.45
2023-02-21T11:22:49.542Z,60.39
2023-02-21T11:25:19.038Z,60.54
2023-02-21T11:28:06.978Z,60.71
2023-02-21T11:30:44.443Z,61.18
2023-02-21T11:33:13.055Z,60.57
2023-02-21T11:35:46.564Z,62.45
2023-02-21T11:38:36.729Z,63.14
2023-02-21T11:41:18.281Z,63.23
2023-02-21T11:43:48.466Z,64.37
2023-02-21T11:46:27.127Z,63.61
2023-02-21T11:49:19.121Z,63.54
2023-02-21T11:51:59.218Z,64.49
2023-02-21T11:54:33.045Z,65.21
2023-02-21T11:57:01.165Z,64.62
2023-02-21T11:59:41.334Z,65.39
2023-02-21T12:02:31.387Z,65.93
2023-02-21T12:05:11.968Z,64.95
2023-02-21T12:08:35.349Z,64.75
2023-02-21T12:11:25.438Z,64.23
2023-02-21T12:14:06.354Z,63.60
2023-02-21T12:16:40.416Z,63.17
2023-02-21T12:19:18.012Z,62.76
2023-02-21T12:21:46.392Z,62.20
2023-02-21T12:24:45.502Z,61.66
2023-02-21T12:27:51.098Z,62.03
2023-02-21T12:30:23.863Z,62.27
2023-02-21T12:33:09.622Z,62.33
2023-02-21T12:36:06.780Z,61.57
2023-02-21T12:39:00.749Z,60.62
2023-02-21T12:41:45.256Z,61.49
2023-02-21T12:44:18.339Z,62.24
2023-02-21T12:46:55.659Z,63.00
2023-02-21T12:49:26.647Z,63.69
2023-02-21T12:52:04.664Z,64.12
2023-02-21T12:55:00.148Z,64.19
2023-02-21T12:57:52.828Z,65.31
2023-02-21T13:00:25.833Z,65.99
2023-02-21T13:02:54.053Z,66.50
2023-02-21T13:05:34.379Z,66.62
2023-02-21T13:08:14.602Z,66.10
2023-02-21T13:11:00.480Z,66.51
2023-02-21T13:13:33.316Z,65.51
2023-02-21T13:16:05.211Z,66.00
2023-02-21T13:18:38.908Z,65.39
2023-02-21T13:21:25.807Z,64.90
2023-02-21T13:24:16.435Z,64.02
2023-02-21T13:27:13.937Z,63.34
2023-02-21T13:29:43.237Z,63.67
2023-02-21T13:32:17.370Z,64.52
2023-02-21T13:35:05.545Z,65.30
2023-02-21T13:37:36.030Z,66.00
2023-02-21T13:40:25.097Z,66.13
2023-02-21T13:43:16.383Z,66.21
2023-02-21T13:45:45.846Z,66.73
2023-02-21T13:48:24.694Z,67.42
2023-02-21T13:50:55.627Z,67.41
2023-02-21T13:53:33.243Z,67.75
2023-02-21T13:56:07.708Z,68.21
2023-02-21T13:58:45.926Z,67.93
2023-02-21T14:01:43.990Z,67.37
2023-02-21T14:04:51.491Z,66.79
2023-02-21T14:07:48.654Z,66.90
2023-02-21T14:10:24.717Z,67.73
2023-02-21T14:13:00.761Z,67.69
2023-02-21T14:15:45.225Z,67.64
2023-02-21T14:18:27.233Z,67.08
2023-02-21T14:20:57.476Z,67.25
2023-02-21T14:23:55.481Z,67.06
2023-02-21T14:27:01.946Z,67.55
2023-02-21T14:29:40.043Z,67.70
2023-02-21T14:32:08.588Z,67.34
2023-02-21T14:34:54.387Z,67.32
2023-02-21T14:37:24.942Z,66.82
2023-02-21T14:39:58.187Z,67.10
2023-02-21T14:43:02.686Z,67.47
2023-02-21T14:45:30.786Z,68.00
2023-02-21T14:48:32.287Z,68.50
2023-02-21T14:51:27.781Z,68.53
2023-02-21T14:54:04.814Z,68.42
2023-02-21T14:56:48.342Z,68.72
2023-02-21T14:59:25.793Z,67.90
2023-02-21T15:02:29.447Z,67.62
2023-02-21T15:05:39.668Z,67.11
2023-02-21T15:08:26.680Z,67.33
2023-02-21T15:11:01.828Z,67.50
2023-02-21T15:13:33.313Z,68.04
2023-02-21T15:16:08.215Z,68.60
2023-02-21T15:19:00.286Z,68.90
2023-02-21T15:21:28.934Z,69.09
2023-02-21T15:24:13.702Z,68.77
2023-02-21T15:26:42.176Z,68.69
2023-02-21T15:29:13.810Z,68.79
2023-02-21T15:31:49.109Z,69.22
2023-02-21T15:34:27.285Z,69.96
2023-02-21T15:37:09.004Z,70.26
2023-02-21T15:39:40.843Z,70.13
2023-02-21T15:42:11.792Z,69.92
2023-02-21T15:44:48.615Z,69.97
2023-02-21T15:47:21.256Z,70.14
2023-02-21T15:50:02.142Z,70.68
2023-02-21T15:52:51.691Z,71.25
2023-02-21T15:55:20.019Z,71.81
2023-02-21T15:58:08.375Z,71.81
2023-02-21T16:00:38.921Z,72.14
2023-02-21T16:03:29.408Z,72.47
2023-02-21T16:06:25.479Z,72.51
2023-02-21T16:09:07.276Z,72.53
2023-02-21T16:11:49.611Z,72.83
2023-02-21T16:14:21.138Z,72.76
2023-02-21T16:16:54.221Z,72.51
2023-02-21T16:19:23.895Z,72.09
2023-02-21T16:22:14.824Z,72.24
2023-02-21T16:24:43.091Z,72.67
2023-02-21T16:27:14.707Z,73.37
2023-02-21T16:29:42.962Z,73.83
2023-02-21T16:32:19.700Z,73.87
2023-02-21T16:34:51.718Z,73.94
2023-02-21T16:37:20.291Z,73.87
2023-02-21T16:39:49.288Z,73.64
2023-02-21T16:42:17.382Z,73.50
2023-02-21T16:44:48.035Z,72.93
2023-02-21T16:47:17.440Z,73.12
2023-02-21T16:49:45.691Z,73.44
2023-02-21T16:52:15.439Z,72.37
2023-02-21T16:54:44.192Z,71.93
2023-02-21T16:57:12.384Z,71.90
2023-02-21T16:59:40.634Z,71.42
2023-02-21T17:02:14.829Z,71.87
2023-02-21T17:04:43.685Z,71.60
2023-02-21T17:07:11.925Z,71.68
2023-02-21T17:09:41.084Z,71.66
2023-02-21T17:12:12.716Z,71.78
2023-02-21T17:14:41.069Z,71.86
2023-02-21T17:17:09.480Z,71.72
2023-02-21T17:19:37.757Z,71.89
2023-02-21T17:22:05.916Z,71.86
2023-02-21T17:24:34.309Z,72.04
2023-02-21T17:27:02.550Z,72.36
2023-02-21T17:29:30.718Z,72.79
2023-02-21T17:31:59.038Z,72.21
2023-02-21T17:34:27.488Z,71.93
2023-02-21T17:36:55.701Z,72.11
2023-02-21T17:39:24.167Z,72.58
2023-02-21T17:41:53.344Z,72.57
2023-02-21T17:44:22.376Z,72.56
2023-02-21T17:46:52.882Z,72.84
2023-02-21T17:49:24.948Z,73.02
2023-02-21T17:51:53.730Z,72.65
2023-02-21T17:54:24.502Z,72.85
2023-02-21T17:56:52.742Z,72.91
2023-02-21T17:59:22.315Z,73.30
2023-02-21T18:01:55.368Z,73.10
2023-02-21T18:04:24.891Z,73.39
2023-02-21T18:06:53.232Z,73.53
2023-02-21T18:09:21.439Z,73.81
2023-02-21T18:11:52.682Z,73.77
2023-02-21T18:14:23.084Z,73.95
2023-02-21T18:16:51.516Z,74.02
2023-02-21T18:19:19.743Z,74.19
2023-02-21T18:21:47.988Z,74.52
2023-02-21T18:24:18.956Z,74.87
2023-02-21T18:26:47.651Z,74.49
2023-02-21T18:29:15.827Z,74.80
2023-02-21T18:31:44.475Z,74.90
2023-02-21T18:34:12.898Z,74.80
2023-02-21T18:36:50.582Z,75.06
2023-02-21T18:39:21.423Z,75.49
2023-02-21T18:41:50.377Z,75.64
2023-02-21T18:44:18.404Z,76.17
2023-02-21T18:46:54.758Z,76.23
2023-02-21T18:49:23.675Z,76.50
2023-02-21T18:51:52.863Z,76.75
2023-02-21T18:54:21.336Z,76.61
2023-02-21T18:56:52.313Z,76.77
2023-02-21T18:59:22.615Z,76.87
2023-02-21T19:01:53.125Z,77.10
2023-02-21T19:04:21.456Z,77.23
2023-02-21T19:06:49.722Z,77.61
2023-02-21T19:09:18.093Z,77.77
2023-02-21T19:11:46.260Z,77.78
2023-02-21T19:14:14.364Z,78.48
2023-02-21T19:16:42.997Z,78.23
2023-02-21T19:19:11.295Z,78.51
2023-02-21T19:21:39.377Z,78.84
2023-02-21T19:24:07.980Z,78.79
2023-02-21T19:26:36.274Z,79.11
2023-02-21T19:29:04.769Z,79.16
2023-02-21T19:31:33.131Z,78.95
2023-02-21T19:34:01.787Z,79.43
2023-02-21T19:36:29.966Z,79.93
2023-02-21T19:38:58.240Z,79.95
2023-02-21T19:41:28.289Z,80.27
2023-02-21T19:43:56.537Z,80.33
2023-02-21T19:46:28.200Z,80.12
2023-02-21T19:48:57.300Z,80.66
2023-02-21T19:51:28.921Z,80.91
2023-02-21T19:53:59.359Z,80.73
2023-02-21T19:56:28.617Z,80.89
2023-02-21T19:58:58.294Z,81.03
2023-02-21T20:01:26.682Z,81.33
2023-02-21T20:03:57.727Z,81.54
2023-02-21T20:06:28.044Z,81.44
2023-02-21T20:08:56.665Z,81.26
2023-02-21T20:11:24.801Z,81.42
2023-02-21T20:13:53.487Z,81.47
2023-02-21T20:16:22.534Z,81.52
2023-02-21T20:18:52.102Z,81.71
2023-02-21T20:21:30.844Z,81.81
2023-02-21T20:24:00.236Z,82.07
2023-02-21T20:26:29.537Z,82.13
2023-02-21T20:28:57.684Z,82.63
2023-02-21T20:31:32.706Z,82.57
2023-02-21T20:34:05.675Z,82.37
2023-02-21T20:36:40.272Z,82.68
2023-02-21T20:39:28.358Z,82.54
2023-02-21T20:41:57.562Z,82.97
2023-02-21T20:44:26.376Z,82.93
2023-02-21T20:46:57.017Z,83.07
2023-02-21T20:49:25.503Z,83.39
2023-02-21T20:51:54.169Z,83.43
2023-02-21T20:54:22.913Z,83.42
2023-02-21T20:56:53.859Z,83.56
2023-02-21T20:59:26.565Z,83.38
2023-02-21T21:01:55.700Z,83.65
2023-02-21T21:04:29.401Z,83.84
2023-02-21T21:07:00.927Z,83.90
2023-02-21T21:09:34.309Z,83.88
2023-02-21T21:12:06.019Z,83.76
2023-02-21T21:14:37.502Z,83.99
2023-02-21T21:17:06.367Z,84.00
2023-02-21T21:19:35.050Z,84.50
2023-02-21T21:22:06.043Z,84.61
2023-02-21T21:24:34.168Z,84.53
2023-02-21T21:27:10.021Z,84.57
2023-02-21T21:29:43.172Z,84.93
2023-02-21T21:32:17.269Z,84.83
2023-02-21T21:34:51.904Z,84.65
2023-02-21T21:37:26.793Z,84.87
2023-02-21T21:39:56.615Z,85.03
2023-02-21T21:42:28.860Z,85.08
2023-02-21T21:44:57.697Z,85.33
2023-02-21T21:47:29.013Z,85.50
2023-02-21T21:49:57.634Z,85.40
2023-02-21T21:52:25.831Z,85.41
2023-02-21T21:54:53.864Z,85.60
2023-02-21T21:57:22.997Z,85.39
2023-02-21T21:59:51.334Z,85.70
2023-02-21T22:02:20.400Z,86.07
2023-02-21T22:04:48.534Z,86.37
2023-02-21T22:07:17.608Z,86.62
2023-02-21T22:09:46.535Z,86.90
2023-02-21T22:12:18.588Z,86.53
2023-02-21T22:14:46.834Z,86.95
2023-02-21T22:17:15.262Z,86.92
2023-02-21T22:19:43.395Z,86.97
2023-02-21T22:22:11.466Z,86.90
2023-02-21T22:24:40.756Z,86.97
2023-02-21T22:27:09.685Z,87.14
2023-02-21T22:29:37.979Z,87.25
2023-02-21T22:32:08.400Z,87.45
2023-02-21T22:34:36.744Z,87.33
2023-02-21T22:37:05.240Z,87.32
2023-02-21T22:39:33.568Z,87.29
2023-02-21T22:42:05.366Z,87.10
2023-02-21T22:44:33.419Z,87.27
2023-02-21T22:47:01.617Z,87.49
2023-02-21T22:49:30.830Z,87.37
2023-02-21T22:51:59.158Z,87.70
2023-02-21T22:54:27.381Z,87.79
2023-02-21T22:57:04.583Z,87.87
2023-02-21T22:59:35.611Z,87.88
2023-02-21T23:02:04.195Z,87.94
2023-02-21T23:04:37.570Z,88.02
2023-02-21T23:07:06.498Z,88.27
2023-02-21T23:09:37.531Z,88.49
2023-02-21T23:12:06.411Z,88.88
2023-02-21T23:14:39.544Z,89.13
2023-02-21T23:17:07.588Z,89.40
2023-02-21T23:19:35.618Z,89.23
2023-02-21T23:22:05.482Z,89.32
2023-02-21T23:24:34.063Z,89.13
2023-02-21T23:27:03.228Z,89.09
2023-02-21T23:29:31.729Z,88.94
2023-02-21T23:32:09.899Z,89.37
2023-02-21T23:34:41.344Z,89.73
2023-02-21T23:37:12.811Z,89.45
2023-02-21T23:39:42.201Z,89.81
2023-02-21T23:42:11.397Z,90.23
2023-02-21T23:44:39.814Z,90.47
2023-02-21T23:47:08.225Z,90.35
2023-02-21T23:49:40.811Z,90.08
2023-02-21T23:52:09.655Z,90.67
2023-02-21T23:54:38.715Z,90.84
2023-02-21T23:57:07.795Z,91.07
2023-02-21T23:59:36.008Z,91.59
